sensor_id;sensor_type;location;lat;lon;timestamp;temperature;humidity
43842;DHT22;29495;49.970;20.842;2023-06-04T00:01:22;8.30;99.90
43842;DHT22;29495;49.970;20.842;2023-06-04T00:03:48;8.30;99.90
43842;DHT22;29495;49.970;20.842;2023-06-04T00:06:14;8.40;99.90
43842;DHT22;29495;49.970;20.842;2023-06-04T00:08:40;8.30;99.90
43842;DHT22;29495;49.970;20.842;2023-06-04T00:11:06;8.30;99.90
43842;DHT22;29495;49.970;20.842;2023-06-04T00:13:31;8.20;99.90
43842;DHT22;29495;49.970;20.842;2023-06-04T00:15:57;8.20;99.90
43842;DHT22;29495;49.970;20.842;2023-06-04T00:18:23;8.20;99.90
43842;DHT22;29495;49.970;20.842;2023-06-04T00:20:49;8.00;99.90
43842;DHT22;29495;49.970;20.842;2023-06-04T00:23:15;7.90;1.00
43842;DHT22;29495;49.970;20.842;2023-06-04T00:25:41;8.10;1.00
43842;DHT22;29495;49.970;20.842;2023-06-04T00:28:06;8.20;99.90
43842;DHT22;29495;49.970;20.842;2023-06-04T00:30:32;8.10;99.90
43842;DHT22;29495;49.970;20.842;2023-06-04T00:32:58;7.80;1.00
43842;DHT22;29495;49.970;20.842;2023-06-04T00:35:24;8.10;99.90
43842;DHT22;29495;49.970;20.842;2023-06-04T00:37:50;7.80;1.00
43842;DHT22;29495;49.970;20.842;2023-06-04T00:40:16;7.80;1.00
43842;DHT22;29495;49.970;20.842;2023-06-04T00:42:42;7.80;1.00
43842;DHT22;29495;49.970;20.842;2023-06-04T00:45:10;7.80;99.90
43842;DHT22;29495;49.970;20.842;2023-06-04T00:47:36;7.80;1.00
43842;DHT22;29495;49.970;20.842;2023-06-04T00:50:02;7.80;1.00
43842;DHT22;29495;49.970;20.842;2023-06-04T00:52:28;7.80;99.90
43842;DHT22;29495;49.970;20.842;2023-06-04T00:54:54;7.70;99.90
43842;DHT22;29495;49.970;20.842;2023-06-04T00:57:21;7.80;99.90
43842;DHT22;29495;49.970;20.842;2023-06-04T00:59:47;7.70;99.90
43842;DHT22;29495;49.970;20.842;2023-06-04T01:02:14;7.70;99.90
43842;DHT22;29495;49.970;20.842;2023-06-04T01:04:44;7.50;99.90
43842;DHT22;29495;49.970;20.842;2023-06-04T01:07:11;7.50;99.90
43842;DHT22;29495;49.970;20.842;2023-06-04T01:09:39;7.50;99.90
43842;DHT22;29495;49.970;20.842;2023-06-04T01:12:05;7.60;99.90
43842;DHT22;29495;49.970;20.842;2023-06-04T01:14:31;7.60;99.90
43842;DHT22;29495;49.970;20.842;2023-06-04T01:16:59;7.40;99.90
43842;DHT22;29495;49.970;20.842;2023-06-04T01:19:39;7.20;1.00
43842;DHT22;29495;49.970;20.842;2023-06-04T01:22:15;7.20;1.00
43842;DHT22;29495;49.970;20.842;2023-06-04T01:24:48;7.40;1.00
43842;DHT22;29495;49.970;20.842;2023-06-04T01:27:17;7.50;1.00
43842;DHT22;29495;49.970;20.842;2023-06-04T01:29:45;7.50;1.00
43842;DHT22;29495;49.970;20.842;2023-06-04T01:32:11;7.60;99.90
43842;DHT22;29495;49.970;20.842;2023-06-04T01:34:44;7.10;1.00
43842;DHT22;29495;49.970;20.842;2023-06-04T01:37:10;7.30;1.00
43842;DHT22;29495;49.970;20.842;2023-06-04T01:39:37;7.20;1.00
43842;DHT22;29495;49.970;20.842;2023-06-04T01:42:02;7.40;1.00
43842;DHT22;29495;49.970;20.842;2023-06-04T01:44:28;7.40;1.00
43842;DHT22;29495;49.970;20.842;2023-06-04T01:46:54;7.30;99.90
43842;DHT22;29495;49.970;20.842;2023-06-04T01:49:20;7.30;99.90
43842;DHT22;29495;49.970;20.842;2023-06-04T01:51:46;7.20;99.90
43842;DHT22;29495;49.970;20.842;2023-06-04T01:54:11;7.10;99.90
43842;DHT22;29495;49.970;20.842;2023-06-04T01:56:37;7.00;1.00
43842;DHT22;29495;49.970;20.842;2023-06-04T01:59:03;6.80;1.00
43842;DHT22;29495;49.970;20.842;2023-06-04T02:01:29;6.70;1.00
43842;DHT22;29495;49.970;20.842;2023-06-04T02:03:55;6.80;1.00
43842;DHT22;29495;49.970;20.842;2023-06-04T02:06:21;6.90;1.00
43842;DHT22;29495;49.970;20.842;2023-06-04T02:08:47;6.80;99.90
43842;DHT22;29495;49.970;20.842;2023-06-04T02:11:13;6.70;1.00
43842;DHT22;29495;49.970;20.842;2023-06-04T02:13:38;6.60;1.00
43842;DHT22;29495;49.970;20.842;2023-06-04T02:16:05;6.60;1.00
43842;DHT22;29495;49.970;20.842;2023-06-04T02:18:30;6.70;1.00
43842;DHT22;29495;49.970;20.842;2023-06-04T02:20:56;6.40;1.00
43842;DHT22;29495;49.970;20.842;2023-06-04T02:23:23;6.40;1.00
43842;DHT22;29495;49.970;20.842;2023-06-04T02:25:49;6.50;1.00
43842;DHT22;29495;49.970;20.842;2023-06-04T02:28:15;6.50;1.00
43842;DHT22;29495;49.970;20.842;2023-06-04T02:30:41;6.70;1.00
43842;DHT22;29495;49.970;20.842;2023-06-04T02:33:07;6.80;1.00
43842;DHT22;29495;49.970;20.842;2023-06-04T02:35:35;6.70;1.00
43842;DHT22;29495;49.970;20.842;2023-06-04T02:38:01;6.70;1.00
43842;DHT22;29495;49.970;20.842;2023-06-04T02:40:28;6.70;1.00
43842;DHT22;29495;49.970;20.842;2023-06-04T02:42:54;6.60;1.00
43842;DHT22;29495;49.970;20.842;2023-06-04T02:45:21;6.50;1.00
43842;DHT22;29495;49.970;20.842;2023-06-04T02:47:47;6.30;1.00
43842;DHT22;29495;49.970;20.842;2023-06-04T02:50:14;6.30;1.00
43842;DHT22;29495;49.970;20.842;2023-06-04T02:52:40;6.50;1.00
43842;DHT22;29495;49.970;20.842;2023-06-04T02:55:07;6.60;1.00
43842;DHT22;29495;49.970;20.842;2023-06-04T02:57:33;6.40;1.00
43842;DHT22;29495;49.970;20.842;2023-06-04T02:59:59;6.50;1.00
43842;DHT22;29495;49.970;20.842;2023-06-04T03:02:25;6.50;1.00
43842;DHT22;29495;49.970;20.842;2023-06-04T03:04:51;6.50;1.00
43842;DHT22;29495;49.970;20.842;2023-06-04T03:07:17;6.70;1.00
43842;DHT22;29495;49.970;20.842;2023-06-04T03:09:46;6.50;1.00
43842;DHT22;29495;49.970;20.842;2023-06-04T03:12:12;6.60;1.00
43842;DHT22;29495;49.970;20.842;2023-06-04T03:14:38;6.80;1.00
43842;DHT22;29495;49.970;20.842;2023-06-04T03:17:04;6.90;1.00
43842;DHT22;29495;49.970;20.842;2023-06-04T03:19:36;6.80;1.00
43842;DHT22;29495;49.970;20.842;2023-06-04T03:22:03;6.60;1.00
43842;DHT22;29495;49.970;20.842;2023-06-04T03:24:37;6.80;1.00
43842;DHT22;29495;49.970;20.842;2023-06-04T03:27:04;6.90;1.00
43842;DHT22;29495;49.970;20.842;2023-06-04T03:29:31;7.10;1.00
43842;DHT22;29495;49.970;20.842;2023-06-04T03:31:59;7.10;1.00
43842;DHT22;29495;49.970;20.842;2023-06-04T03:34:25;7.20;1.00
43842;DHT22;29495;49.970;20.842;2023-06-04T03:36:52;7.30;1.00
43842;DHT22;29495;49.970;20.842;2023-06-04T03:39:18;7.40;1.00
43842;DHT22;29495;49.970;20.842;2023-06-04T03:41:44;7.40;1.00
43842;DHT22;29495;49.970;20.842;2023-06-04T03:44:17;7.40;1.00
43842;DHT22;29495;49.970;20.842;2023-06-04T03:46:44;7.30;1.00
43842;DHT22;29495;49.970;20.842;2023-06-04T03:49:11;7.40;1.00
43842;DHT22;29495;49.970;20.842;2023-06-04T03:51:37;7.50;1.00
43842;DHT22;29495;49.970;20.842;2023-06-04T03:54:03;7.40;1.00
43842;DHT22;29495;49.970;20.842;2023-06-04T03:56:31;7.50;1.00
43842;DHT22;29495;49.970;20.842;2023-06-04T03:58:57;7.40;1.00
43842;DHT22;29495;49.970;20.842;2023-06-04T04:01:23;7.50;1.00
43842;DHT22;29495;49.970;20.842;2023-06-04T04:03:50;7.50;1.00
43842;DHT22;29495;49.970;20.842;2023-06-04T04:06:17;7.60;1.00
43842;DHT22;29495;49.970;20.842;2023-06-04T04:08:43;7.60;1.00
43842;DHT22;29495;49.970;20.842;2023-06-04T04:11:16;7.70;1.00
43842;DHT22;29495;49.970;20.842;2023-06-04T04:13:44;7.90;1.00
43842;DHT22;29495;49.970;20.842;2023-06-04T04:16:10;7.90;1.00
43842;DHT22;29495;49.970;20.842;2023-06-04T04:18:36;8.00;1.00
43842;DHT22;29495;49.970;20.842;2023-06-04T04:21:02;8.20;1.00
43842;DHT22;29495;49.970;20.842;2023-06-04T04:23:29;8.30;1.00
43842;DHT22;29495;49.970;20.842;2023-06-04T04:25:55;8.30;1.00
43842;DHT22;29495;49.970;20.842;2023-06-04T04:28:27;8.50;1.00
43842;DHT22;29495;49.970;20.842;2023-06-04T04:30:55;8.70;1.00
43842;DHT22;29495;49.970;20.842;2023-06-04T04:33:29;8.90;1.00
43842;DHT22;29495;49.970;20.842;2023-06-04T04:36:03;9.10;1.00
43842;DHT22;29495;49.970;20.842;2023-06-04T04:38:29;9.20;1.00
43842;DHT22;29495;49.970;20.842;2023-06-04T04:41:01;9.40;1.00
43842;DHT22;29495;49.970;20.842;2023-06-04T04:43:34;9.60;1.00
43842;DHT22;29495;49.970;20.842;2023-06-04T04:46:22;9.60;1.00
43842;DHT22;29495;49.970;20.842;2023-06-04T04:48:48;9.80;1.00
43842;DHT22;29495;49.970;20.842;2023-06-04T04:51:14;10.00;1.00
43842;DHT22;29495;49.970;20.842;2023-06-04T04:53:40;10.10;1.00
43842;DHT22;29495;49.970;20.842;2023-06-04T04:56:06;10.40;1.00
43842;DHT22;29495;49.970;20.842;2023-06-04T04:58:35;10.50;1.00
43842;DHT22;29495;49.970;20.842;2023-06-04T05:01:01;10.90;1.00
43842;DHT22;29495;49.970;20.842;2023-06-04T05:03:27;11.70;1.00
43842;DHT22;29495;49.970;20.842;2023-06-04T05:05:53;13.20;99.90
43842;DHT22;29495;49.970;20.842;2023-06-04T05:08:19;14.60;99.90
43842;DHT22;29495;49.970;20.842;2023-06-04T05:10:45;16.60;99.90
43842;DHT22;29495;49.970;20.842;2023-06-04T05:13:11;17.80;1.00
43842;DHT22;29495;49.970;20.842;2023-06-04T05:15:43;19.20;99.90
43842;DHT22;29495;49.970;20.842;2023-06-04T05:18:10;20.20;1.00
43842;DHT22;29495;49.970;20.842;2023-06-04T05:20:38;21.20;99.90
43842;DHT22;29495;49.970;20.842;2023-06-04T05:23:06;21.60;1.00
43842;DHT22;29495;49.970;20.842;2023-06-04T05:25:32;21.70;99.90
43842;DHT22;29495;49.970;20.842;2023-06-04T05:28:00;22.50;1.00
43842;DHT22;29495;49.970;20.842;2023-06-04T05:30:26;23.20;99.90
43842;DHT22;29495;49.970;20.842;2023-06-04T05:32:52;23.60;40.90
43842;DHT22;29495;49.970;20.842;2023-06-04T05:35:21;23.70;1.00
43842;DHT22;29495;49.970;20.842;2023-06-04T05:37:48;24.10;99.90
43842;DHT22;29495;49.970;20.842;2023-06-04T05:40:20;24.40;45.10
43842;DHT22;29495;49.970;20.842;2023-06-04T05:42:47;25.90;99.90
43842;DHT22;29495;49.970;20.842;2023-06-04T05:45:13;25.30;58.00
43842;DHT22;29495;49.970;20.842;2023-06-04T05:47:40;25.40;99.90
43842;DHT22;29495;49.970;20.842;2023-06-04T05:50:06;25.10;1.00
43842;DHT22;29495;49.970;20.842;2023-06-04T05:52:33;26.40;1.00
43842;DHT22;29495;49.970;20.842;2023-06-04T05:55:01;26.30;1.00
43842;DHT22;29495;49.970;20.842;2023-06-04T05:57:28;26.80;86.50
43842;DHT22;29495;49.970;20.842;2023-06-04T05:59:54;27.40;1.00
43842;DHT22;29495;49.970;20.842;2023-06-04T06:02:19;26.60;99.90
43842;DHT22;29495;49.970;20.842;2023-06-04T06:04:46;28.30;1.00
43842;DHT22;29495;49.970;20.842;2023-06-04T06:07:11;27.70;1.00
43842;DHT22;29495;49.970;20.842;2023-06-04T06:09:37;27.30;1.00
43842;DHT22;29495;49.970;20.842;2023-06-04T06:12:03;27.30;99.90
43842;DHT22;29495;49.970;20.842;2023-06-04T06:14:31;26.50;99.90
43842;DHT22;29495;49.970;20.842;2023-06-04T06:16:58;27.80;99.90
43842;DHT22;29495;49.970;20.842;2023-06-04T06:19:24;26.70;86.50
43842;DHT22;29495;49.970;20.842;2023-06-04T06:21:50;28.40;99.90
43842;DHT22;29495;49.970;20.842;2023-06-04T06:24:16;28.70;99.90
43842;DHT22;29495;49.970;20.842;2023-06-04T06:26:42;27.60;5.60
43842;DHT22;29495;49.970;20.842;2023-06-04T06:29:10;28.40;1.00
43842;DHT22;29495;49.970;20.842;2023-06-04T06:31:36;28.70;1.00
43842;DHT22;29495;49.970;20.842;2023-06-04T06:34:02;29.10;1.00
43842;DHT22;29495;49.970;20.842;2023-06-04T06:36:28;28.60;1.00
43842;DHT22;29495;49.970;20.842;2023-06-04T06:38:54;29.00;99.90
43842;DHT22;29495;49.970;20.842;2023-06-04T06:41:20;29.30;1.00
43842;DHT22;29495;49.970;20.842;2023-06-04T06:43:46;29.90;1.00
43842;DHT22;29495;49.970;20.842;2023-06-04T06:46:12;28.50;1.00
43842;DHT22;29495;49.970;20.842;2023-06-04T06:48:38;28.70;1.00
43842;DHT22;29495;49.970;20.842;2023-06-04T06:51:04;27.30;1.00
43842;DHT22;29495;49.970;20.842;2023-06-04T06:53:30;28.70;1.00
43842;DHT22;29495;49.970;20.842;2023-06-04T06:55:56;29.40;1.00
43842;DHT22;29495;49.970;20.842;2023-06-04T06:58:22;30.40;99.90
43842;DHT22;29495;49.970;20.842;2023-06-04T07:00:48;30.60;99.90
43842;DHT22;29495;49.970;20.842;2023-06-04T07:03:15;30.30;99.90
43842;DHT22;29495;49.970;20.842;2023-06-04T07:05:41;29.90;99.90
43842;DHT22;29495;49.970;20.842;2023-06-04T07:08:06;29.30;99.90
43842;DHT22;29495;49.970;20.842;2023-06-04T07:10:32;29.40;99.90
43842;DHT22;29495;49.970;20.842;2023-06-04T07:12:58;29.10;99.90
43842;DHT22;29495;49.970;20.842;2023-06-04T07:15:24;29.50;99.90
43842;DHT22;29495;49.970;20.842;2023-06-04T07:17:50;28.90;1.00
43842;DHT22;29495;49.970;20.842;2023-06-04T07:20:16;29.20;1.00
43842;DHT22;29495;49.970;20.842;2023-06-04T07:22:42;28.50;80.30
43842;DHT22;29495;49.970;20.842;2023-06-04T07:25:07;28.50;99.90
43842;DHT22;29495;49.970;20.842;2023-06-04T07:27:34;27.50;99.90
43842;DHT22;29495;49.970;20.842;2023-06-04T07:30:00;28.40;1.00
43842;DHT22;29495;49.970;20.842;2023-06-04T07:32:26;29.00;1.00
43842;DHT22;29495;49.970;20.842;2023-06-04T07:34:51;27.40;1.00
43842;DHT22;29495;49.970;20.842;2023-06-04T07:37:17;27.40;1.00
43842;DHT22;29495;49.970;20.842;2023-06-04T07:39:43;26.20;99.90
43842;DHT22;29495;49.970;20.842;2023-06-04T07:42:09;26.30;99.90
43842;DHT22;29495;49.970;20.842;2023-06-04T07:44:36;25.70;99.90
43842;DHT22;29495;49.970;20.842;2023-06-04T07:47:02;24.70;1.00
43842;DHT22;29495;49.970;20.842;2023-06-04T07:49:28;24.00;99.90
43842;DHT22;29495;49.970;20.842;2023-06-04T07:51:53;23.10;99.90
43842;DHT22;29495;49.970;20.842;2023-06-04T07:54:20;23.00;99.90
43842;DHT22;29495;49.970;20.842;2023-06-04T07:56:46;22.60;99.90
43842;DHT22;29495;49.970;20.842;2023-06-04T07:59:12;22.90;99.90
43842;DHT22;29495;49.970;20.842;2023-06-04T08:01:37;23.00;99.90
43842;DHT22;29495;49.970;20.842;2023-06-04T08:04:03;21.90;99.90
43842;DHT22;29495;49.970;20.842;2023-06-04T08:06:29;22.00;99.90
43842;DHT22;29495;49.970;20.842;2023-06-04T08:08:55;22.50;99.90
43842;DHT22;29495;49.970;20.842;2023-06-04T08:11:21;22.80;99.90
43842;DHT22;29495;49.970;20.842;2023-06-04T08:13:50;23.00;99.90
43842;DHT22;29495;49.970;20.842;2023-06-04T08:16:15;22.80;99.90
43842;DHT22;29495;49.970;20.842;2023-06-04T08:19:02;23.30;99.90
43842;DHT22;29495;49.970;20.842;2023-06-04T08:21:39;22.80;99.90
43842;DHT22;29495;49.970;20.842;2023-06-04T08:24:14;22.90;85.90
43842;DHT22;29495;49.970;20.842;2023-06-04T08:26:57;22.50;71.40
43842;DHT22;29495;49.970;20.842;2023-06-04T08:29:31;22.60;58.20
43842;DHT22;29495;49.970;20.842;2023-06-04T08:31:58;22.80;99.90
43842;DHT22;29495;49.970;20.842;2023-06-04T08:34:28;23.30;23.90
43842;DHT22;29495;49.970;20.842;2023-06-04T08:36:54;22.70;99.10
43842;DHT22;29495;49.970;20.842;2023-06-04T08:39:19;23.00;99.90
43842;DHT22;29495;49.970;20.842;2023-06-04T08:41:49;22.80;11.20
43842;DHT22;29495;49.970;20.842;2023-06-04T08:44:16;23.20;47.30
43842;DHT22;29495;49.970;20.842;2023-06-04T08:46:41;22.80;1.00
43842;DHT22;29495;49.970;20.842;2023-06-04T08:49:09;23.10;1.00
43842;DHT22;29495;49.970;20.842;2023-06-04T08:51:37;23.20;1.00
43842;DHT22;29495;49.970;20.842;2023-06-04T08:54:03;23.60;1.00
43842;DHT22;29495;49.970;20.842;2023-06-04T08:56:30;23.60;31.00
43842;DHT22;29495;49.970;20.842;2023-06-04T08:59:02;23.80;1.00
43842;DHT22;29495;49.970;20.842;2023-06-04T09:01:29;23.80;1.00
43842;DHT22;29495;49.970;20.842;2023-06-04T09:03:54;24.00;35.60
43842;DHT22;29495;49.970;20.842;2023-06-04T09:06:23;24.40;1.00
43842;DHT22;29495;49.970;20.842;2023-06-04T09:08:49;24.60;1.00
43842;DHT22;29495;49.970;20.842;2023-06-04T09:11:14;24.60;54.60
43842;DHT22;29495;49.970;20.842;2023-06-04T09:13:41;23.90;1.00
43842;DHT22;29495;49.970;20.842;2023-06-04T09:16:08;24.00;25.20
43842;DHT22;29495;49.970;20.842;2023-06-04T09:18:35;23.80;1.00
43842;DHT22;29495;49.970;20.842;2023-06-04T09:21:01;23.80;1.00
43842;DHT22;29495;49.970;20.842;2023-06-04T09:23:27;24.20;11.10
43842;DHT22;29495;49.970;20.842;2023-06-04T09:25:53;24.50;15.20
43842;DHT22;29495;49.970;20.842;2023-06-04T09:28:19;24.40;14.20
43842;DHT22;29495;49.970;20.842;2023-06-04T09:30:54;24.30;19.30
43842;DHT22;29495;49.970;20.842;2023-06-04T09:33:20;24.50;1.00
43842;DHT22;29495;49.970;20.842;2023-06-04T09:35:55;24.20;1.00
43842;DHT22;29495;49.970;20.842;2023-06-04T09:38:21;24.20;99.90
43842;DHT22;29495;49.970;20.842;2023-06-04T09:40:48;24.50;99.90
43842;DHT22;29495;49.970;20.842;2023-06-04T09:43:21;24.50;54.30
43842;DHT22;29495;49.970;20.842;2023-06-04T09:45:48;24.10;1.00
43842;DHT22;29495;49.970;20.842;2023-06-04T09:48:20;23.70;1.00
43842;DHT22;29495;49.970;20.842;2023-06-04T09:50:49;24.20;1.00
43842;DHT22;29495;49.970;20.842;2023-06-04T09:53:15;24.20;1.00
43842;DHT22;29495;49.970;20.842;2023-06-04T09:55:41;24.50;23.60
43842;DHT22;29495;49.970;20.842;2023-06-04T09:58:07;24.10;96.40
43842;DHT22;29495;49.970;20.842;2023-06-04T10:00:35;23.80;1.00
43842;DHT22;29495;49.970;20.842;2023-06-04T10:03:01;23.70;1.00
43842;DHT22;29495;49.970;20.842;2023-06-04T10:05:29;23.80;56.00
43842;DHT22;29495;49.970;20.842;2023-06-04T10:07:57;24.00;1.00
43842;DHT22;29495;49.970;20.842;2023-06-04T10:10:25;23.80;1.00
43842;DHT22;29495;49.970;20.842;2023-06-04T10:12:56;24.20;48.20
43842;DHT22;29495;49.970;20.842;2023-06-04T10:15:25;24.40;7.80
43842;DHT22;29495;49.970;20.842;2023-06-04T10:17:52;24.30;79.90
43842;DHT22;29495;49.970;20.842;2023-06-04T10:20:19;24.80;99.90
43842;DHT22;29495;49.970;20.842;2023-06-04T10:22:46;24.40;24.50
43842;DHT22;29495;49.970;20.842;2023-06-04T10:25:13;24.40;1.00
43842;DHT22;29495;49.970;20.842;2023-06-04T10:27:39;24.60;80.10
43842;DHT22;29495;49.970;20.842;2023-06-04T10:30:05;24.50;21.30
43842;DHT22;29495;49.970;20.842;2023-06-04T10:32:32;24.80;1.00
43842;DHT22;29495;49.970;20.842;2023-06-04T10:34:58;24.60;1.00
43842;DHT22;29495;49.970;20.842;2023-06-04T10:37:24;24.90;1.00
43842;DHT22;29495;49.970;20.842;2023-06-04T10:39:51;25.20;1.00
43842;DHT22;29495;49.970;20.842;2023-06-04T10:42:17;24.80;99.90
43842;DHT22;29495;49.970;20.842;2023-06-04T10:44:47;24.40;99.90
43842;DHT22;29495;49.970;20.842;2023-06-04T10:47:26;24.50;99.90
43842;DHT22;29495;49.970;20.842;2023-06-04T10:49:53;24.20;99.90
43842;DHT22;29495;49.970;20.842;2023-06-04T10:52:19;24.20;99.90
43842;DHT22;29495;49.970;20.842;2023-06-04T10:54:45;24.70;99.90
43842;DHT22;29495;49.970;20.842;2023-06-04T10:57:14;24.40;99.90
43842;DHT22;29495;49.970;20.842;2023-06-04T10:59:40;24.60;73.70
43842;DHT22;29495;49.970;20.842;2023-06-04T11:02:07;24.70;29.30
43842;DHT22;29495;49.970;20.842;2023-06-04T11:04:33;24.60;39.90
43842;DHT22;29495;49.970;20.842;2023-06-04T11:07:00;25.00;61.20
43842;DHT22;29495;49.970;20.842;2023-06-04T11:09:27;25.20;29.90
43842;DHT22;29495;49.970;20.842;2023-06-04T11:11:59;25.30;98.00
43842;DHT22;29495;49.970;20.842;2023-06-04T11:14:25;25.30;91.60
43842;DHT22;29495;49.970;20.842;2023-06-04T11:16:51;25.60;99.90
43842;DHT22;29495;49.970;20.842;2023-06-04T11:19:17;25.20;99.90
43842;DHT22;29495;49.970;20.842;2023-06-04T11:21:43;24.90;54.80
43842;DHT22;29495;49.970;20.842;2023-06-04T11:24:11;24.80;30.80
43842;DHT22;29495;49.970;20.842;2023-06-04T11:26:37;24.80;1.00
43842;DHT22;29495;49.970;20.842;2023-06-04T11:29:06;25.20;35.80
43842;DHT22;29495;49.970;20.842;2023-06-04T11:31:42;24.80;73.00
43842;DHT22;29495;49.970;20.842;2023-06-04T11:34:08;24.70;1.00
43842;DHT22;29495;49.970;20.842;2023-06-04T11:36:34;24.70;17.60
43842;DHT22;29495;49.970;20.842;2023-06-04T11:39:02;24.90;1.00
43842;DHT22;29495;49.970;20.842;2023-06-04T11:41:32;24.70;1.00
43842;DHT22;29495;49.970;20.842;2023-06-04T11:44:00;24.90;1.00
43842;DHT22;29495;49.970;20.842;2023-06-04T11:46:26;24.80;1.00
43842;DHT22;29495;49.970;20.842;2023-06-04T11:48:52;24.60;1.00
43842;DHT22;29495;49.970;20.842;2023-06-04T11:51:19;25.00;1.00
43842;DHT22;29495;49.970;20.842;2023-06-04T11:53:46;25.40;1.00
43842;DHT22;29495;49.970;20.842;2023-06-04T11:56:12;25.40;1.00
43842;DHT22;29495;49.970;20.842;2023-06-04T11:58:38;25.70;1.00
43842;DHT22;29495;49.970;20.842;2023-06-04T12:01:06;25.50;1.00
43842;DHT22;29495;49.970;20.842;2023-06-04T12:03:34;25.40;1.00
43842;DHT22;29495;49.970;20.842;2023-06-04T12:06:08;25.10;1.00
43842;DHT22;29495;49.970;20.842;2023-06-04T12:08:43;25.30;1.00
43842;DHT22;29495;49.970;20.842;2023-06-04T12:11:09;25.40;1.00
43842;DHT22;29495;49.970;20.842;2023-06-04T12:13:38;25.60;1.00
43842;DHT22;29495;49.970;20.842;2023-06-04T12:16:04;25.30;1.00
43842;DHT22;29495;49.970;20.842;2023-06-04T12:18:30;25.00;1.00
43842;DHT22;29495;49.970;20.842;2023-06-04T12:20:56;25.10;1.00
43842;DHT22;29495;49.970;20.842;2023-06-04T12:23:21;25.20;1.00
43842;DHT22;29495;49.970;20.842;2023-06-04T12:25:49;25.20;1.00
43842;DHT22;29495;49.970;20.842;2023-06-04T12:28:19;24.80;1.00
43842;DHT22;29495;49.970;20.842;2023-06-04T12:30:45;25.10;1.00
43842;DHT22;29495;49.970;20.842;2023-06-04T12:33:11;25.00;1.00
43842;DHT22;29495;49.970;20.842;2023-06-04T12:35:37;25.00;99.90
43842;DHT22;29495;49.970;20.842;2023-06-04T12:38:04;25.00;99.90
43842;DHT22;29495;49.970;20.842;2023-06-04T12:40:30;25.40;99.90
43842;DHT22;29495;49.970;20.842;2023-06-04T12:42:56;24.60;99.90
43842;DHT22;29495;49.970;20.842;2023-06-04T12:45:22;25.10;1.00
43842;DHT22;29495;49.970;20.842;2023-06-04T12:47:48;25.50;1.00
43842;DHT22;29495;49.970;20.842;2023-06-04T12:50:14;25.50;1.00
43842;DHT22;29495;49.970;20.842;2023-06-04T12:52:40;25.50;99.90
43842;DHT22;29495;49.970;20.842;2023-06-04T12:55:06;25.90;99.90
43842;DHT22;29495;49.970;20.842;2023-06-04T12:57:32;26.00;99.90
43842;DHT22;29495;49.970;20.842;2023-06-04T12:59:58;26.00;1.00
43842;DHT22;29495;49.970;20.842;2023-06-04T13:02:24;25.80;99.90
43842;DHT22;29495;49.970;20.842;2023-06-04T13:04:50;25.40;99.90
43842;DHT22;29495;49.970;20.842;2023-06-04T13:07:20;25.50;1.00
43842;DHT22;29495;49.970;20.842;2023-06-04T13:09:46;25.80;1.00
43842;DHT22;29495;49.970;20.842;2023-06-04T13:12:11;25.80;1.00
43842;DHT22;29495;49.970;20.842;2023-06-04T13:14:38;25.80;1.00
43842;DHT22;29495;49.970;20.842;2023-06-04T13:17:05;25.20;1.00
43842;DHT22;29495;49.970;20.842;2023-06-04T13:19:30;25.30;1.00
43842;DHT22;29495;49.970;20.842;2023-06-04T13:21:56;25.40;99.90
43842;DHT22;29495;49.970;20.842;2023-06-04T13:24:23;25.40;99.90
43842;DHT22;29495;49.970;20.842;2023-06-04T13:26:49;25.20;99.90
43842;DHT22;29495;49.970;20.842;2023-06-04T13:29:15;24.70;99.90
43842;DHT22;29495;49.970;20.842;2023-06-04T13:31:41;24.40;99.90
43842;DHT22;29495;49.970;20.842;2023-06-04T13:34:07;25.10;99.90
43842;DHT22;29495;49.970;20.842;2023-06-04T13:36:33;25.10;99.90
43842;DHT22;29495;49.970;20.842;2023-06-04T13:38:59;24.90;99.90
43842;DHT22;29495;49.970;20.842;2023-06-04T13:41:25;24.80;99.90
43842;DHT22;29495;49.970;20.842;2023-06-04T13:43:52;24.90;99.90
43842;DHT22;29495;49.970;20.842;2023-06-04T13:46:17;25.00;99.90
43842;DHT22;29495;49.970;20.842;2023-06-04T13:48:43;25.10;99.90
43842;DHT22;29495;49.970;20.842;2023-06-04T13:51:09;24.90;99.90
43842;DHT22;29495;49.970;20.842;2023-06-04T13:53:35;24.50;99.90
43842;DHT22;29495;49.970;20.842;2023-06-04T13:56:01;24.90;99.90
43842;DHT22;29495;49.970;20.842;2023-06-04T13:58:26;25.10;99.90
43842;DHT22;29495;49.970;20.842;2023-06-04T14:00:52;25.10;99.90
43842;DHT22;29495;49.970;20.842;2023-06-04T14:03:18;25.30;99.90
43842;DHT22;29495;49.970;20.842;2023-06-04T14:05:46;25.30;99.90
43842;DHT22;29495;49.970;20.842;2023-06-04T14:08:11;25.20;99.90
43842;DHT22;29495;49.970;20.842;2023-06-04T14:10:38;25.10;99.90
43842;DHT22;29495;49.970;20.842;2023-06-04T14:13:07;25.30;99.90
43842;DHT22;29495;49.970;20.842;2023-06-04T14:15:33;25.50;99.90
43842;DHT22;29495;49.970;20.842;2023-06-04T14:17:59;25.80;99.90
43842;DHT22;29495;49.970;20.842;2023-06-04T14:20:25;25.60;99.90
43842;DHT22;29495;49.970;20.842;2023-06-04T14:22:51;25.30;99.90
43842;DHT22;29495;49.970;20.842;2023-06-04T14:25:17;25.30;99.90
43842;DHT22;29495;49.970;20.842;2023-06-04T14:27:43;25.10;99.90
43842;DHT22;29495;49.970;20.842;2023-06-04T14:30:09;25.20;99.90
43842;DHT22;29495;49.970;20.842;2023-06-04T14:32:35;25.30;99.90
43842;DHT22;29495;49.970;20.842;2023-06-04T14:35:01;25.20;99.90
43842;DHT22;29495;49.970;20.842;2023-06-04T14:37:27;25.20;99.90
43842;DHT22;29495;49.970;20.842;2023-06-04T14:39:53;24.90;99.90
43842;DHT22;29495;49.970;20.842;2023-06-04T14:42:19;25.40;99.90
43842;DHT22;29495;49.970;20.842;2023-06-04T14:44:45;25.20;99.90
43842;DHT22;29495;49.970;20.842;2023-06-04T14:47:11;25.10;99.90
43842;DHT22;29495;49.970;20.842;2023-06-04T14:49:37;25.00;99.90
43842;DHT22;29495;49.970;20.842;2023-06-04T14:52:03;24.90;99.90
43842;DHT22;29495;49.970;20.842;2023-06-04T14:54:29;25.10;99.90
43842;DHT22;29495;49.970;20.842;2023-06-04T14:56:55;25.30;99.90
43842;DHT22;29495;49.970;20.842;2023-06-04T14:59:21;25.10;99.90
43842;DHT22;29495;49.970;20.842;2023-06-04T15:01:47;25.00;99.90
43842;DHT22;29495;49.970;20.842;2023-06-04T15:04:12;24.80;99.90
43842;DHT22;29495;49.970;20.842;2023-06-04T15:06:38;24.90;99.90
43842;DHT22;29495;49.970;20.842;2023-06-04T15:09:04;25.10;99.90
43842;DHT22;29495;49.970;20.842;2023-06-04T15:11:30;25.20;99.90
43842;DHT22;29495;49.970;20.842;2023-06-04T15:13:56;24.90;99.90
43842;DHT22;29495;49.970;20.842;2023-06-04T15:16:22;25.00;99.90
43842;DHT22;29495;49.970;20.842;2023-06-04T15:18:48;24.70;99.90
43842;DHT22;29495;49.970;20.842;2023-06-04T15:21:14;24.80;99.90
43842;DHT22;29495;49.970;20.842;2023-06-04T15:23:40;24.50;99.90
43842;DHT22;29495;49.970;20.842;2023-06-04T15:26:06;24.60;99.90